AIQ8435 VTBD-VTCC
Flight info
| Callsign | AIQ8435 |
|---|---|
| Flight time | 1h 0m |
| Altitude | 30000 |
| Route | OLVUK3C OLVUK Y26 MARNI MARNI2B |
| Aircraft | A320/M-SDE3FGHIRWY/LB1 |
Departure
| Time | 2026-04-28 09:15 |
|---|---|
| Airport | Don Mueang International Airport (VTBD) |
Arrival
| Time | 2026-04-28 10:15 |
|---|---|
| Airport | Chiang Mai International Airport (VTCC) |
| Time | Latitude | Longitude | Altitude | Speed | Heading |
|---|---|---|---|---|---|
| 2026-04-28 09:03 | 13.91568 | 100.60204 | 17 ft | 0 kts | 28° |
| 2026-04-28 09:06 | 13.91563 | 100.60202 | 19 ft | 4 kts | 29° |
| 2026-04-28 09:07 | 13.91540 | 100.60188 | 19 ft | 4 kts | 33° |
| 2026-04-28 09:07 | 13.91518 | 100.60171 | 19 ft | 4 kts | 46° |
| 2026-04-28 09:07 | 13.91505 | 100.60150 | 19 ft | 4 kts | 100° |
| 2026-04-28 09:07 | 13.91506 | 100.60143 | 17 ft | 0 kts | 119° |
| 2026-04-28 09:09 | 13.91493 | 100.60169 | 17 ft | 10 kts | 119° |
| 2026-04-28 09:09 | 13.91457 | 100.60235 | 19 ft | 10 kts | 119° |
| 2026-04-28 09:10 | 13.91423 | 100.60299 | 17 ft | 10 kts | 119° |
| 2026-04-28 09:10 | 13.91412 | 100.60360 | 17 ft | 8 kts | 59° |
| 2026-04-28 09:10 | 13.91459 | 100.60391 | 17 ft | 8 kts | 28° |
| 2026-04-28 09:10 | 13.91512 | 100.60420 | 17 ft | 14 kts | 28° |
| 2026-04-28 09:11 | 13.91616 | 100.60475 | 17 ft | 18 kts | 27° |
| 2026-04-28 09:11 | 13.91722 | 100.60535 | 17 ft | 17 kts | 31° |
| 2026-04-28 09:11 | 13.91817 | 100.60592 | 17 ft | 15 kts | 29° |
| 2026-04-28 09:11 | 13.91902 | 100.60640 | 17 ft | 14 kts | 28° |
| 2026-04-28 09:12 | 13.92015 | 100.60705 | 18 ft | 21 kts | 29° |
| 2026-04-28 09:12 | 13.92140 | 100.60774 | 18 ft | 20 kts | 28° |
| 2026-04-28 09:12 | 13.92254 | 100.60838 | 18 ft | 18 kts | 29° |
| 2026-04-28 09:12 | 13.92356 | 100.60896 | 18 ft | 16 kts | 27° |
| 2026-04-28 09:13 | 13.92451 | 100.60948 | 17 ft | 15 kts | 28° |
| 2026-04-28 09:13 | 13.92538 | 100.60996 | 19 ft | 13 kts | 28° |
| 2026-04-28 09:13 | 13.92614 | 100.61040 | 17 ft | 12 kts | 29° |
| 2026-04-28 09:13 | 13.92647 | 100.61099 | 17 ft | 10 kts | 109° |
| 2026-04-28 09:14 | 13.92615 | 100.61160 | 16 ft | 9 kts | 119° |
| 2026-04-28 09:14 | 13.92578 | 100.61205 | 16 ft | 7 kts | 182° |
| 2026-04-28 09:14 | 13.92540 | 100.61187 | 16 ft | 4 kts | 210° |
| 2026-04-28 09:14 | 13.92460 | 100.61141 | 17 ft | 37 kts | 209° |
| 2026-04-28 09:15 | 13.92015 | 100.60895 | 18 ft | 105 kts | 209° |
| 2026-04-28 09:15 | 13.91214 | 100.60443 | 18 ft | 156 kts | 210° |
| 2026-04-28 09:15 | 13.90194 | 100.59865 | 446 ft | 167 kts | 205° |
| 2026-04-28 09:15 | 13.89182 | 100.59286 | 1226 ft | 165 kts | 207° |
| 2026-04-28 09:16 | 13.88150 | 100.58669 | 1708 ft | 183 kts | 213° |
| 2026-04-28 09:16 | 13.87411 | 100.57523 | 1985 ft | 213 kts | 259° |
| 2026-04-28 09:16 | 13.87592 | 100.55947 | 2359 ft | 241 kts | 287° |
| 2026-04-28 09:16 | 13.88283 | 100.54279 | 2785 ft | 265 kts | 294° |
| 2026-04-28 09:17 | 13.89135 | 100.52564 | 3557 ft | 271 kts | 296° |
| 2026-04-28 09:17 | 13.89992 | 100.50830 | 4467 ft | 272 kts | 295° |
| 2026-04-28 09:17 | 13.90814 | 100.49071 | 5351 ft | 273 kts | 294° |
| 2026-04-28 09:17 | 13.91594 | 100.47283 | 6173 ft | 276 kts | 292° |
| 2026-04-28 09:18 | 13.92344 | 100.45454 | 6955 ft | 279 kts | 291° |
| 2026-04-28 09:18 | 13.93081 | 100.43596 | 7670 ft | 283 kts | 290° |
| 2026-04-28 09:18 | 13.93778 | 100.41812 | 7909 ft | 283 kts | 291° |
| 2026-04-28 09:18 | 13.94506 | 100.39932 | 7990 ft | 283 kts | 290° |
| 2026-04-28 09:19 | 13.95232 | 100.38049 | 8000 ft | 283 kts | 290° |
| 2026-04-28 09:19 | 13.95964 | 100.36184 | 8000 ft | 282 kts | 294° |
| 2026-04-28 09:19 | 13.97029 | 100.34484 | 8002 ft | 284 kts | 310° |
| 2026-04-28 09:19 | 13.98551 | 100.33231 | 8038 ft | 289 kts | 331° |
| 2026-04-28 09:20 | 14.00485 | 100.32606 | 8756 ft | 295 kts | 350° |
| 2026-04-28 09:20 | 14.02527 | 100.32349 | 9597 ft | 297 kts | 352° |
| 2026-04-28 09:20 | 14.04595 | 100.32103 | 10288 ft | 303 kts | 352° |
| 2026-04-28 09:20 | 14.06777 | 100.31846 | 10505 ft | 327 kts | 352° |
| 2026-04-28 09:21 | 14.09113 | 100.31572 | 10740 ft | 347 kts | 352° |
| 2026-04-28 09:21 | 14.11535 | 100.31290 | 11287 ft | 354 kts | 352° |
| 2026-04-28 09:21 | 14.14000 | 100.31005 | 11946 ft | 358 kts | 352° |
| 2026-04-28 09:21 | 14.16489 | 100.30718 | 12590 ft | 362 kts | 352° |
| 2026-04-28 09:22 | 14.19004 | 100.30428 | 13240 ft | 366 kts | 352° |
| 2026-04-28 09:22 | 14.21547 | 100.30134 | 13839 ft | 369 kts | 352° |
| 2026-04-28 09:22 | 14.24111 | 100.29835 | 14400 ft | 373 kts | 352° |
| 2026-04-28 09:22 | 14.26702 | 100.29530 | 14961 ft | 375 kts | 352° |
| 2026-04-28 09:23 | 14.29305 | 100.29222 | 15525 ft | 378 kts | 352° |
| 2026-04-28 09:23 | 14.31928 | 100.28912 | 16076 ft | 381 kts | 352° |
| 2026-04-28 09:23 | 14.34577 | 100.28603 | 16625 ft | 384 kts | 352° |
| 2026-04-28 09:23 | 14.37245 | 100.28295 | 17170 ft | 387 kts | 352° |
| 2026-04-28 09:24 | 14.39936 | 100.27985 | 17715 ft | 390 kts | 352° |
| 2026-04-28 09:24 | 14.42602 | 100.27673 | 18210 ft | 393 kts | 352° |
| 2026-04-28 09:24 | 14.45328 | 100.27352 | 18689 ft | 395 kts | 351° |
| 2026-04-28 09:24 | 14.48033 | 100.26845 | 19153 ft | 396 kts | 342° |
| 2026-04-28 09:25 | 14.50666 | 100.26003 | 19639 ft | 397 kts | 340° |
| 2026-04-28 09:25 | 14.53309 | 100.25144 | 20141 ft | 399 kts | 340° |
| 2026-04-28 09:25 | 14.55965 | 100.24286 | 20639 ft | 401 kts | 340° |
| 2026-04-28 09:25 | 14.58640 | 100.23425 | 21126 ft | 403 kts | 340° |
| 2026-04-28 09:26 | 14.61325 | 100.22560 | 21617 ft | 405 kts | 340° |
| 2026-04-28 09:26 | 14.64022 | 100.21691 | 22090 ft | 407 kts | 340° |
| 2026-04-28 09:26 | 14.66735 | 100.20812 | 22557 ft | 409 kts | 340° |
| 2026-04-28 09:26 | 14.69452 | 100.19917 | 23019 ft | 411 kts | 339° |
| 2026-04-28 09:27 | 14.74924 | 100.18087 | 23792 ft | 415 kts | 339° |
| 2026-04-28 09:27 | 14.77679 | 100.17163 | 24135 ft | 417 kts | 339° |
| 2026-04-28 09:27 | 14.80448 | 100.16237 | 24496 ft | 419 kts | 339° |
| 2026-04-28 09:28 | 14.83234 | 100.15309 | 24838 ft | 421 kts | 339° |
| 2026-04-28 09:28 | 14.86028 | 100.14381 | 25161 ft | 423 kts | 339° |
| 2026-04-28 09:28 | 14.88838 | 100.13450 | 25494 ft | 425 kts | 339° |
| 2026-04-28 09:28 | 14.91622 | 100.12528 | 25805 ft | 427 kts | 339° |
| 2026-04-28 09:29 | 14.94458 | 100.11588 | 26118 ft | 429 kts | 339° |
| 2026-04-28 09:29 | 14.97306 | 100.10640 | 26433 ft | 431 kts | 339° |
| 2026-04-28 09:29 | 15.00167 | 100.09685 | 26739 ft | 433 kts | 339° |
| 2026-04-28 09:29 | 15.03042 | 100.08724 | 27040 ft | 435 kts | 339° |
| 2026-04-28 09:30 | 15.05924 | 100.07763 | 27341 ft | 437 kts | 339° |
| 2026-04-28 09:30 | 15.08826 | 100.06796 | 27629 ft | 439 kts | 339° |
| 2026-04-28 09:30 | 15.11736 | 100.05825 | 27909 ft | 441 kts | 339° |
| 2026-04-28 09:30 | 15.14665 | 100.04847 | 28184 ft | 443 kts | 338° |
| 2026-04-28 09:31 | 15.17608 | 100.03865 | 28457 ft | 445 kts | 338° |
| 2026-04-28 09:31 | 15.20564 | 100.02878 | 28723 ft | 447 kts | 338° |
| 2026-04-28 09:31 | 15.23532 | 100.01891 | 28991 ft | 449 kts | 338° |
| 2026-04-28 09:31 | 15.26511 | 100.00898 | 29224 ft | 451 kts | 338° |
| 2026-04-28 09:32 | 15.29502 | 99.99900 | 29479 ft | 453 kts | 338° |
| 2026-04-28 09:32 | 15.32511 | 99.98896 | 29688 ft | 454 kts | 338° |
| 2026-04-28 09:32 | 15.38419 | 99.96929 | 29735 ft | 440 kts | 338° |
| 2026-04-28 09:33 | 15.44172 | 99.95001 | 29738 ft | 436 kts | 338° |
| 2026-04-28 09:33 | 15.49920 | 99.93074 | 29734 ft | 436 kts | 338° |
| 2026-04-28 09:34 | 15.55688 | 99.91140 | 29738 ft | 435 kts | 338° |
| 2026-04-28 09:34 | 15.61454 | 99.89206 | 29740 ft | 435 kts | 338° |
| 2026-04-28 09:35 | 15.67213 | 99.87275 | 29735 ft | 435 kts | 338° |
| 2026-04-28 09:35 | 15.72969 | 99.85353 | 29731 ft | 434 kts | 338° |
| 2026-04-28 09:36 | 15.77752 | 99.83757 | 29729 ft | 434 kts | 338° |
| 2026-04-28 09:36 | 15.83491 | 99.81835 | 29731 ft | 434 kts | 338° |
| 2026-04-28 09:37 | 15.89229 | 99.79902 | 29728 ft | 433 kts | 338° |
| 2026-04-28 09:37 | 15.94918 | 99.77982 | 29725 ft | 433 kts | 338° |
| 2026-04-28 09:38 | 16.00648 | 99.76053 | 29723 ft | 433 kts | 338° |
| 2026-04-28 09:38 | 16.06370 | 99.74128 | 29725 ft | 432 kts | 338° |
| 2026-04-28 09:39 | 16.12096 | 99.72201 | 29724 ft | 432 kts | 338° |
| 2026-04-28 09:39 | 16.17815 | 99.70271 | 29740 ft | 432 kts | 338° |
| 2026-04-28 09:40 | 16.23536 | 99.68341 | 29725 ft | 432 kts | 337° |
| 2026-04-28 09:40 | 16.29211 | 99.66422 | 29729 ft | 432 kts | 337° |
| 2026-04-28 09:41 | 16.34922 | 99.64499 | 29728 ft | 432 kts | 338° |
| 2026-04-28 09:41 | 16.40641 | 99.62573 | 29731 ft | 432 kts | 337° |
| 2026-04-28 09:42 | 16.46351 | 99.60645 | 29733 ft | 431 kts | 337° |
| 2026-04-28 09:42 | 16.52060 | 99.58715 | 29731 ft | 431 kts | 337° |
| 2026-04-28 09:43 | 16.57770 | 99.56791 | 29735 ft | 431 kts | 337° |
| 2026-04-28 09:43 | 16.63480 | 99.54866 | 29738 ft | 431 kts | 338° |
| 2026-04-28 09:44 | 16.69149 | 99.52943 | 29743 ft | 431 kts | 337° |
| 2026-04-28 09:44 | 16.74842 | 99.51004 | 29738 ft | 431 kts | 337° |
| 2026-04-28 09:45 | 16.80544 | 99.49068 | 29740 ft | 431 kts | 337° |
| 2026-04-28 09:45 | 16.86207 | 99.47154 | 29740 ft | 430 kts | 338° |
| 2026-04-28 09:46 | 16.91905 | 99.45227 | 29747 ft | 430 kts | 337° |
| 2026-04-28 09:46 | 16.97587 | 99.43296 | 29747 ft | 430 kts | 337° |
| 2026-04-28 09:47 | 17.03277 | 99.41362 | 29752 ft | 430 kts | 337° |
| 2026-04-28 09:47 | 17.08959 | 99.39432 | 29754 ft | 429 kts | 337° |
| 2026-04-28 09:48 | 17.14597 | 99.37519 | 29760 ft | 429 kts | 337° |
| 2026-04-28 09:48 | 17.20268 | 99.35584 | 29767 ft | 429 kts | 337° |
| 2026-04-28 09:49 | 17.25935 | 99.33651 | 29766 ft | 428 kts | 337° |
| 2026-04-28 09:49 | 17.31596 | 99.31721 | 29772 ft | 428 kts | 337° |
| 2026-04-28 09:50 | 17.37251 | 99.29790 | 29778 ft | 427 kts | 338° |
| 2026-04-28 09:50 | 17.42807 | 99.27893 | 29792 ft | 427 kts | 338° |
| 2026-04-28 09:51 | 17.48494 | 99.26091 | 29797 ft | 428 kts | 341° |
| 2026-04-28 09:51 | 17.54258 | 99.24664 | 29791 ft | 429 kts | 343° |
| 2026-04-28 09:52 | 17.60087 | 99.23318 | 29800 ft | 429 kts | 342° |
| 2026-04-28 09:52 | 17.65898 | 99.21912 | 29796 ft | 428 kts | 342° |
| 2026-04-28 09:53 | 17.71684 | 99.20454 | 29797 ft | 428 kts | 342° |
| 2026-04-28 09:53 | 17.77475 | 99.18984 | 29801 ft | 428 kts | 342° |
| 2026-04-28 09:54 | 17.83266 | 99.17522 | 29799 ft | 428 kts | 342° |
| 2026-04-28 09:54 | 17.89054 | 99.16074 | 29797 ft | 428 kts | 342° |
| 2026-04-28 09:55 | 17.94912 | 99.14599 | 29810 ft | 441 kts | 342° |
| 2026-04-28 09:55 | 18.00883 | 99.13087 | 29809 ft | 446 kts | 342° |
| 2026-04-28 09:56 | 18.03880 | 99.12331 | 29183 ft | 439 kts | 342° |
| 2026-04-28 09:56 | 18.06848 | 99.11586 | 27702 ft | 438 kts | 342° |
| 2026-04-28 09:56 | 18.09800 | 99.10847 | 26479 ft | 433 kts | 342° |
| 2026-04-28 09:56 | 18.12711 | 99.10126 | 25384 ft | 427 kts | 344° |
| 2026-04-28 09:57 | 18.15651 | 99.09765 | 24574 ft | 422 kts | 355° |
| 2026-04-28 09:57 | 18.18533 | 99.09825 | 24064 ft | 406 kts | 357° |
| 2026-04-28 09:57 | 18.21280 | 99.09900 | 23553 ft | 391 kts | 356° |
| 2026-04-28 09:57 | 18.23962 | 99.09966 | 23013 ft | 378 kts | 356° |
| 2026-04-28 09:58 | 18.26547 | 99.10027 | 22546 ft | 368 kts | 356° |
| 2026-04-28 09:58 | 18.29111 | 99.10086 | 22097 ft | 368 kts | 357° |
| 2026-04-28 09:58 | 18.31667 | 99.10146 | 21654 ft | 366 kts | 357° |
| 2026-04-28 09:58 | 18.34208 | 99.10205 | 21215 ft | 366 kts | 357° |
| 2026-04-28 09:59 | 18.36720 | 99.10263 | 20766 ft | 365 kts | 357° |
| 2026-04-28 10:00 | 18.38076 | 99.10287 | 20689 ft | 363 kts | 357° |
| 2026-04-28 10:00 | 18.40769 | 99.10346 | 20104 ft | 402 kts | 358° |
| 2026-04-28 10:00 | 18.43524 | 99.10408 | 19504 ft | 401 kts | 358° |
| 2026-04-28 10:00 | 18.46304 | 99.10477 | 19016 ft | 393 kts | 358° |
| 2026-04-28 10:01 | 18.48957 | 99.10550 | 18519 ft | 378 kts | 359° |
| 2026-04-28 10:01 | 18.51562 | 99.10625 | 18028 ft | 374 kts | 359° |
| 2026-04-28 10:01 | 18.54171 | 99.10697 | 17478 ft | 374 kts | 359° |
| 2026-04-28 10:01 | 18.56759 | 99.10764 | 17000 ft | 371 kts | 358° |
| 2026-04-28 10:02 | 18.59329 | 99.10829 | 16573 ft | 368 kts | 358° |
| 2026-04-28 10:02 | 18.61883 | 99.10891 | 16083 ft | 367 kts | 358° |
| 2026-04-28 10:02 | 18.64362 | 99.10948 | 15617 ft | 365 kts | 358° |
| 2026-04-28 10:02 | 18.66902 | 99.11007 | 15140 ft | 364 kts | 358° |
| 2026-04-28 10:03 | 18.69428 | 99.11069 | 14669 ft | 363 kts | 359° |
| 2026-04-28 10:03 | 18.71946 | 99.11134 | 14203 ft | 361 kts | 358° |
| 2026-04-28 10:03 | 18.74458 | 99.11198 | 13718 ft | 360 kts | 359° |
| 2026-04-28 10:03 | 18.76892 | 99.11262 | 13111 ft | 350 kts | 359° |
| 2026-04-28 10:04 | 18.79307 | 99.11325 | 12477 ft | 344 kts | 359° |
| 2026-04-28 10:04 | 18.81691 | 99.11383 | 11863 ft | 341 kts | 358° |
| 2026-04-28 10:04 | 18.84048 | 99.11438 | 11307 ft | 338 kts | 358° |
| 2026-04-28 10:04 | 18.86386 | 99.11497 | 10784 ft | 331 kts | 359° |
| 2026-04-28 10:05 | 18.88643 | 99.11559 | 10338 ft | 319 kts | 359° |
| 2026-04-28 10:05 | 18.90825 | 99.11620 | 9923 ft | 307 kts | 358° |
| 2026-04-28 10:05 | 18.92818 | 99.11672 | 9519 ft | 297 kts | 358° |
| 2026-04-28 10:05 | 18.94853 | 99.11724 | 9091 ft | 287 kts | 358° |
| 2026-04-28 10:06 | 18.96824 | 99.11771 | 8695 ft | 278 kts | 358° |
| 2026-04-28 10:06 | 18.98729 | 99.11819 | 8303 ft | 269 kts | 358° |
| 2026-04-28 10:06 | 19.00568 | 99.11854 | 7920 ft | 259 kts | 353° |
| 2026-04-28 10:06 | 19.02277 | 99.11443 | 7547 ft | 251 kts | 331° |
| 2026-04-28 10:07 | 19.03657 | 99.10445 | 7170 ft | 247 kts | 311° |
| 2026-04-28 10:07 | 19.04623 | 99.08979 | 6805 ft | 243 kts | 291° |
| 2026-04-28 10:07 | 19.05029 | 99.07255 | 6424 ft | 240 kts | 270° |
| 2026-04-28 10:07 | 19.05027 | 99.05518 | 6046 ft | 234 kts | 268° |
| 2026-04-28 10:08 | 19.05025 | 99.03839 | 5657 ft | 228 kts | 268° |
| 2026-04-28 10:08 | 19.05031 | 99.02217 | 5534 ft | 213 kts | 269° |
| 2026-04-28 10:08 | 19.05037 | 99.00788 | 5531 ft | 202 kts | 268° |
| 2026-04-28 10:08 | 19.05042 | 98.99324 | 5525 ft | 197 kts | 269° |
| 2026-04-28 10:09 | 19.04845 | 98.97913 | 5532 ft | 195 kts | 245° |
| 2026-04-28 10:09 | 19.03992 | 98.96805 | 5529 ft | 198 kts | 216° |
| 2026-04-28 10:09 | 19.02679 | 98.96330 | 5320 ft | 204 kts | 186° |
| 2026-04-28 10:09 | 19.01270 | 98.96325 | 5042 ft | 201 kts | 184° |
| 2026-04-28 10:10 | 18.99884 | 98.96328 | 4781 ft | 197 kts | 184° |
| 2026-04-28 10:10 | 18.98529 | 98.96331 | 4526 ft | 192 kts | 184° |
| 2026-04-28 10:10 | 18.97206 | 98.96333 | 4288 ft | 189 kts | 184° |
| 2026-04-28 10:10 | 18.95910 | 98.96332 | 4034 ft | 184 kts | 184° |
| 2026-04-28 10:11 | 18.94648 | 98.96331 | 3806 ft | 179 kts | 183° |
| 2026-04-28 10:11 | 18.93418 | 98.96331 | 3591 ft | 176 kts | 184° |
| 2026-04-28 10:11 | 18.92203 | 98.96330 | 3359 ft | 171 kts | 185° |
| 2026-04-28 10:11 | 18.91043 | 98.96329 | 3153 ft | 162 kts | 185° |
| 2026-04-28 10:12 | 18.89962 | 98.96329 | 2976 ft | 151 kts | 184° |
| 2026-04-28 10:12 | 18.88939 | 98.96327 | 2831 ft | 147 kts | 183° |
| 2026-04-28 10:12 | 18.87924 | 98.96324 | 2687 ft | 145 kts | 181° |
| 2026-04-28 10:12 | 18.86918 | 98.96319 | 2542 ft | 143 kts | 179° |
| 2026-04-28 10:13 | 18.85924 | 98.96313 | 2424 ft | 142 kts | 179° |
| 2026-04-28 10:13 | 18.84938 | 98.96308 | 2299 ft | 141 kts | 179° |
| 2026-04-28 10:13 | 18.83972 | 98.96305 | 2132 ft | 141 kts | 180° |
| 2026-04-28 10:13 | 18.83021 | 98.96304 | 1952 ft | 142 kts | 179° |
| 2026-04-28 10:14 | 18.82048 | 98.96311 | 1842 ft | 140 kts | 179° |
| 2026-04-28 10:14 | 18.81086 | 98.96306 | 1652 ft | 136 kts | 180° |
| 2026-04-28 10:14 | 18.80146 | 98.96292 | 1464 ft | 136 kts | 178° |
| 2026-04-28 10:14 | 18.79216 | 98.96300 | 1290 ft | 133 kts | 182° |
| 2026-04-28 10:15 | 18.78291 | 98.96291 | 1106 ft | 133 kts | 180° |
| 2026-04-28 10:15 | 18.77399 | 98.96296 | 1034 ft | 117 kts | 181° |
| 2026-04-28 10:15 | 18.76755 | 98.96287 | 1032 ft | 68 kts | 180° |
| 2026-04-28 10:15 | 18.76430 | 98.96287 | 1032 ft | 36 kts | 180° |
| 2026-04-28 10:16 | 18.76237 | 98.96286 | 1032 ft | 21 kts | 180° |
| 2026-04-28 10:16 | 18.76189 | 98.96353 | 1032 ft | 10 kts | 89° |
| 2026-04-28 10:16 | 18.76189 | 98.96420 | 1032 ft | 8 kts | 89° |
| 2026-04-28 10:16 | 18.76190 | 98.96477 | 1032 ft | 7 kts | 89° |
| 2026-04-28 10:17 | 18.76190 | 98.96524 | 1032 ft | 6 kts | 89° |
| 2026-04-28 10:17 | 18.76190 | 98.96558 | 1032 ft | 5 kts | 89° |
| 2026-04-28 10:17 | 18.76201 | 98.96617 | 1032 ft | 13 kts | 55° |
| 2026-04-28 10:17 | 18.76283 | 98.96632 | 1032 ft | 12 kts | 359° |
| 2026-04-28 10:18 | 18.76359 | 98.96632 | 1032 ft | 10 kts | 359° |
| 2026-04-28 10:18 | 18.76427 | 98.96632 | 1032 ft | 9 kts | 1° |
| 2026-04-28 10:18 | 18.76490 | 98.96633 | 1032 ft | 9 kts | 1° |
| 2026-04-28 10:18 | 18.76548 | 98.96633 | 1032 ft | 8 kts | 1° |
| 2026-04-28 10:19 | 18.76599 | 98.96641 | 1032 ft | 7 kts | 20° |
| 2026-04-28 10:19 | 18.76654 | 98.96647 | 1032 ft | 9 kts | 359° |
| 2026-04-28 10:19 | 18.76716 | 98.96659 | 1032 ft | 10 kts | 47° |
| 2026-04-28 10:19 | 18.76712 | 98.96721 | 1032 ft | 4 kts | 89° |
| 2026-04-28 10:20 | 18.76712 | 98.96736 | 1032 ft | 0 kts | 91° |